sensor_id;sensor_type;location;lat;lon;timestamp;P1;durP1;ratioP1;P2;durP2;ratioP2
73337;SDS011;61575;49.908;35.556;2023-11-22T00:01:49;56.70;;;19.87;;
73337;SDS011;61575;49.908;35.556;2023-11-22T00:04:51;51.50;;;18.73;;
73337;SDS011;61575;49.908;35.556;2023-11-22T00:07:53;54.13;;;18.15;;
73337;SDS011;61575;49.908;35.556;2023-11-22T00:10:55;53.17;;;19.67;;
73337;SDS011;61575;49.908;35.556;2023-11-22T00:13:57;42.10;;;15.02;;
73337;SDS011;61575;49.908;35.556;2023-11-22T00:16:59;54.75;;;19.08;;
73337;SDS011;61575;49.908;35.556;2023-11-22T00:20:03;50.85;;;18.17;;
73337;SDS011;61575;49.908;35.556;2023-11-22T00:23:07;57.17;;;19.00;;
73337;SDS011;61575;49.908;35.556;2023-11-22T00:26:09;46.55;;;18.48;;
73337;SDS011;61575;49.908;35.556;2023-11-22T00:29:15;61.85;;;21.15;;
73337;SDS011;61575;49.908;35.556;2023-11-22T00:32:17;60.88;;;21.63;;
73337;SDS011;61575;49.908;35.556;2023-11-22T00:35:20;56.47;;;19.80;;
73337;SDS011;61575;49.908;35.556;2023-11-22T00:38:22;53.03;;;18.85;;
73337;SDS011;61575;49.908;35.556;2023-11-22T00:44:31;61.97;;;21.00;;
73337;SDS011;61575;49.908;35.556;2023-11-22T00:47:33;47.78;;;16.63;;
73337;SDS011;61575;49.908;35.556;2023-11-22T00:50:35;45.30;;;16.95;;
73337;SDS011;61575;49.908;35.556;2023-11-22T00:53:37;49.23;;;17.30;;
73337;SDS011;61575;49.908;35.556;2023-11-22T00:56:40;36.50;;;13.20;;
73337;SDS011;61575;49.908;35.556;2023-11-22T00:59:42;39.63;;;14.48;;
73337;SDS011;61575;49.908;35.556;2023-11-22T01:02:44;40.10;;;14.68;;
73337;SDS011;61575;49.908;35.556;2023-11-22T01:05:46;37.78;;;13.68;;
73337;SDS011;61575;49.908;35.556;2023-11-22T01:08:48;36.37;;;11.83;;
73337;SDS011;61575;49.908;35.556;2023-11-22T01:11:50;22.93;;;10.03;;
73337;SDS011;61575;49.908;35.556;2023-11-22T01:14:52;21.23;;;8.60;;
73337;SDS011;61575;49.908;35.556;2023-11-22T01:17:54;18.50;;;7.10;;
73337;SDS011;61575;49.908;35.556;2023-11-22T01:20:56;26.05;;;10.43;;
73337;SDS011;61575;49.908;35.556;2023-11-22T01:23:58;41.20;;;16.02;;
73337;SDS011;61575;49.908;35.556;2023-11-22T01:27:01;37.33;;;13.43;;
73337;SDS011;61575;49.908;35.556;2023-11-22T01:30:04;31.65;;;13.00;;
73337;SDS011;61575;49.908;35.556;2023-11-22T01:33:09;33.38;;;12.07;;
73337;SDS011;61575;49.908;35.556;2023-11-22T01:36:11;36.93;;;11.80;;
73337;SDS011;61575;49.908;35.556;2023-11-22T01:39:13;35.17;;;12.13;;
73337;SDS011;61575;49.908;35.556;2023-11-22T01:42:15;32.50;;;11.57;;
73337;SDS011;61575;49.908;35.556;2023-11-22T01:45:17;29.57;;;10.60;;
73337;SDS011;61575;49.908;35.556;2023-11-22T01:48:20;26.08;;;9.88;;
73337;SDS011;61575;49.908;35.556;2023-11-22T01:51:23;28.70;;;10.55;;
73337;SDS011;61575;49.908;35.556;2023-11-22T01:54:26;22.10;;;9.40;;
73337;SDS011;61575;49.908;35.556;2023-11-22T01:57:31;26.83;;;10.27;;
73337;SDS011;61575;49.908;35.556;2023-11-22T02:00:45;26.27;;;9.90;;
73337;SDS011;61575;49.908;35.556;2023-11-22T02:03:51;23.27;;;9.15;;
73337;SDS011;61575;49.908;35.556;2023-11-22T02:06:55;23.10;;;8.85;;
73337;SDS011;61575;49.908;35.556;2023-11-22T02:10:00;21.60;;;8.35;;
73337;SDS011;61575;49.908;35.556;2023-11-22T02:13:05;20.10;;;7.95;;
73337;SDS011;61575;49.908;35.556;2023-11-22T02:16:09;18.38;;;7.15;;
73337;SDS011;61575;49.908;35.556;2023-11-22T02:19:13;16.13;;;6.47;;
73337;SDS011;61575;49.908;35.556;2023-11-22T02:22:18;15.80;;;6.75;;
73337;SDS011;61575;49.908;35.556;2023-11-22T02:25:20;17.00;;;7.10;;
73337;SDS011;61575;49.908;35.556;2023-11-22T02:28:22;15.32;;;7.10;;
73337;SDS011;61575;49.908;35.556;2023-11-22T02:34:30;14.75;;;5.78;;
73337;SDS011;61575;49.908;35.556;2023-11-22T02:37:32;12.80;;;5.45;;
73337;SDS011;61575;49.908;35.556;2023-11-22T02:40:34;9.25;;;3.92;;
73337;SDS011;61575;49.908;35.556;2023-11-22T02:43:36;9.10;;;4.37;;
73337;SDS011;61575;49.908;35.556;2023-11-22T02:46:38;8.57;;;3.60;;
73337;SDS011;61575;49.908;35.556;2023-11-22T02:49:40;10.65;;;4.30;;
73337;SDS011;61575;49.908;35.556;2023-11-22T02:52:42;10.73;;;4.13;;
73337;SDS011;61575;49.908;35.556;2023-11-22T02:55:44;13.47;;;5.00;;
73337;SDS011;61575;49.908;35.556;2023-11-22T02:58:46;7.57;;;3.80;;
73337;SDS011;61575;49.908;35.556;2023-11-22T03:01:49;13.40;;;6.00;;
73337;SDS011;61575;49.908;35.556;2023-11-22T03:04:53;13.38;;;5.75;;
73337;SDS011;61575;49.908;35.556;2023-11-22T03:07:55;9.23;;;4.73;;
73337;SDS011;61575;49.908;35.556;2023-11-22T03:10:57;10.95;;;5.10;;
73337;SDS011;61575;49.908;35.556;2023-11-22T03:13:59;9.95;;;4.70;;
73337;SDS011;61575;49.908;35.556;2023-11-22T03:17:02;11.32;;;5.55;;
73337;SDS011;61575;49.908;35.556;2023-11-22T03:20:05;16.00;;;5.78;;
73337;SDS011;61575;49.908;35.556;2023-11-22T03:23:11;12.98;;;5.70;;
73337;SDS011;61575;49.908;35.556;2023-11-22T03:26:13;11.13;;;5.17;;
73337;SDS011;61575;49.908;35.556;2023-11-22T03:32:19;12.25;;;5.88;;
73337;SDS011;61575;49.908;35.556;2023-11-22T03:35:22;11.13;;;4.93;;
73337;SDS011;61575;49.908;35.556;2023-11-22T03:38:24;10.50;;;4.80;;
73337;SDS011;61575;49.908;35.556;2023-11-22T03:41:26;13.20;;;4.80;;
73337;SDS011;61575;49.908;35.556;2023-11-22T03:44:28;9.77;;;4.43;;
73337;SDS011;61575;49.908;35.556;2023-11-22T03:47:32;9.90;;;4.72;;
73337;SDS011;61575;49.908;35.556;2023-11-22T03:50:40;11.98;;;5.47;;
73337;SDS011;61575;49.908;35.556;2023-11-22T03:53:42;15.57;;;6.10;;
73337;SDS011;61575;49.908;35.556;2023-11-22T03:56:44;9.53;;;4.30;;
73337;SDS011;61575;49.908;35.556;2023-11-22T03:59:46;11.65;;;5.63;;
73337;SDS011;61575;49.908;35.556;2023-11-22T04:02:47;17.57;;;6.63;;
73337;SDS011;61575;49.908;35.556;2023-11-22T04:05:50;15.57;;;6.20;;
73337;SDS011;61575;49.908;35.556;2023-11-22T04:08:52;12.52;;;5.50;;
73337;SDS011;61575;49.908;35.556;2023-11-22T04:11:54;14.95;;;6.35;;
73337;SDS011;61575;49.908;35.556;2023-11-22T04:14:56;11.68;;;4.80;;
73337;SDS011;61575;49.908;35.556;2023-11-22T04:17:59;11.80;;;5.05;;
73337;SDS011;61575;49.908;35.556;2023-11-22T04:21:01;11.52;;;4.93;;
73337;SDS011;61575;49.908;35.556;2023-11-22T04:24:06;11.75;;;5.65;;
73337;SDS011;61575;49.908;35.556;2023-11-22T04:27:08;11.88;;;5.57;;
73337;SDS011;61575;49.908;35.556;2023-11-22T04:30:10;12.77;;;5.47;;
73337;SDS011;61575;49.908;35.556;2023-11-22T04:33:16;13.73;;;5.97;;
73337;SDS011;61575;49.908;35.556;2023-11-22T04:36:18;13.80;;;6.55;;
73337;SDS011;61575;49.908;35.556;2023-11-22T04:39:23;16.10;;;6.63;;
73337;SDS011;61575;49.908;35.556;2023-11-22T04:42:25;28.97;;;10.07;;
73337;SDS011;61575;49.908;35.556;2023-11-22T04:45:28;21.00;;;8.15;;
73337;SDS011;61575;49.908;35.556;2023-11-22T04:48:30;14.43;;;6.27;;
73337;SDS011;61575;49.908;35.556;2023-11-22T04:51:32;15.63;;;6.47;;
73337;SDS011;61575;49.908;35.556;2023-11-22T04:54:34;15.10;;;6.13;;
73337;SDS011;61575;49.908;35.556;2023-11-22T04:57:36;13.23;;;5.85;;
73337;SDS011;61575;49.908;35.556;2023-11-22T05:00:38;13.03;;;5.60;;
73337;SDS011;61575;49.908;35.556;2023-11-22T05:03:40;10.40;;;5.10;;
73337;SDS011;61575;49.908;35.556;2023-11-22T05:06:42;9.43;;;4.77;;
73337;SDS011;61575;49.908;35.556;2023-11-22T05:09:45;12.57;;;6.43;;
73337;SDS011;61575;49.908;35.556;2023-11-22T05:12:47;10.80;;;5.10;;
73337;SDS011;61575;49.908;35.556;2023-11-22T05:15:49;10.07;;;4.82;;
73337;SDS011;61575;49.908;35.556;2023-11-22T05:18:52;12.07;;;6.18;;
73337;SDS011;61575;49.908;35.556;2023-11-22T05:21:54;10.43;;;4.87;;
73337;SDS011;61575;49.908;35.556;2023-11-22T05:24:56;9.87;;;4.93;;
73337;SDS011;61575;49.908;35.556;2023-11-22T05:27:58;16.07;;;6.60;;
73337;SDS011;61575;49.908;35.556;2023-11-22T05:31:00;13.00;;;6.28;;
73337;SDS011;61575;49.908;35.556;2023-11-22T05:34:03;14.93;;;7.27;;
73337;SDS011;61575;49.908;35.556;2023-11-22T05:37:04;15.50;;;7.27;;
73337;SDS011;61575;49.908;35.556;2023-11-22T05:40:07;14.32;;;6.70;;
73337;SDS011;61575;49.908;35.556;2023-11-22T05:43:11;14.07;;;6.55;;
73337;SDS011;61575;49.908;35.556;2023-11-22T05:46:13;15.38;;;6.72;;
73337;SDS011;61575;49.908;35.556;2023-11-22T05:49:15;16.60;;;6.95;;
73337;SDS011;61575;49.908;35.556;2023-11-22T05:52:17;15.30;;;7.33;;
73337;SDS011;61575;49.908;35.556;2023-11-22T05:55:20;17.45;;;7.05;;
73337;SDS011;61575;49.908;35.556;2023-11-22T05:58:22;19.42;;;7.68;;
73337;SDS011;61575;49.908;35.556;2023-11-22T06:01:24;16.73;;;7.53;;
73337;SDS011;61575;49.908;35.556;2023-11-22T06:04:28;16.75;;;7.80;;
73337;SDS011;61575;49.908;35.556;2023-11-22T06:07:30;14.37;;;6.87;;
73337;SDS011;61575;49.908;35.556;2023-11-22T06:10:32;12.35;;;6.53;;
73337;SDS011;61575;49.908;35.556;2023-11-22T06:13:35;12.90;;;6.10;;
73337;SDS011;61575;49.908;35.556;2023-11-22T06:16:38;13.65;;;6.05;;
73337;SDS011;61575;49.908;35.556;2023-11-22T06:19:42;13.05;;;6.00;;
73337;SDS011;61575;49.908;35.556;2023-11-22T06:22:44;16.02;;;7.07;;
73337;SDS011;61575;49.908;35.556;2023-11-22T06:25:46;15.37;;;6.93;;
73337;SDS011;61575;49.908;35.556;2023-11-22T06:28:48;13.13;;;5.50;;
73337;SDS011;61575;49.908;35.556;2023-11-22T06:31:51;13.77;;;6.57;;
73337;SDS011;61575;49.908;35.556;2023-11-22T06:34:52;15.37;;;6.90;;
73337;SDS011;61575;49.908;35.556;2023-11-22T06:37:54;13.00;;;6.47;;
73337;SDS011;61575;49.908;35.556;2023-11-22T06:40:56;14.43;;;7.00;;
73337;SDS011;61575;49.908;35.556;2023-11-22T06:43:58;15.30;;;6.70;;
73337;SDS011;61575;49.908;35.556;2023-11-22T06:47:00;13.37;;;6.50;;
73337;SDS011;61575;49.908;35.556;2023-11-22T06:50:03;15.85;;;6.78;;
73337;SDS011;61575;49.908;35.556;2023-11-22T06:53:11;14.90;;;7.03;;
73337;SDS011;61575;49.908;35.556;2023-11-22T06:56:13;13.23;;;6.22;;
73337;SDS011;61575;49.908;35.556;2023-11-22T06:59:16;12.88;;;6.00;;
73337;SDS011;61575;49.908;35.556;2023-11-22T07:02:19;11.15;;;5.57;;
73337;SDS011;61575;49.908;35.556;2023-11-22T07:05:21;14.13;;;6.75;;
73337;SDS011;61575;49.908;35.556;2023-11-22T07:08:23;12.45;;;6.03;;
73337;SDS011;61575;49.908;35.556;2023-11-22T07:11:27;13.35;;;5.40;;
73337;SDS011;61575;49.908;35.556;2023-11-22T07:14:32;11.40;;;5.55;;
73337;SDS011;61575;49.908;35.556;2023-11-22T07:17:34;9.70;;;4.50;;
73337;SDS011;61575;49.908;35.556;2023-11-22T07:20:36;10.80;;;4.93;;
73337;SDS011;61575;49.908;35.556;2023-11-22T07:23:38;9.98;;;4.45;;
73337;SDS011;61575;49.908;35.556;2023-11-22T07:26:41;8.80;;;4.17;;
73337;SDS011;61575;49.908;35.556;2023-11-22T07:29:46;12.57;;;5.50;;
73337;SDS011;61575;49.908;35.556;2023-11-22T07:32:49;12.23;;;5.70;;
73337;SDS011;61575;49.908;35.556;2023-11-22T07:35:53;9.55;;;4.50;;
73337;SDS011;61575;49.908;35.556;2023-11-22T07:38:56;7.45;;;3.75;;
73337;SDS011;61575;49.908;35.556;2023-11-22T07:41:58;9.50;;;4.07;;
73337;SDS011;61575;49.908;35.556;2023-11-22T07:45:00;9.47;;;4.27;;
73337;SDS011;61575;49.908;35.556;2023-11-22T07:48:05;9.90;;;4.63;;
73337;SDS011;61575;49.908;35.556;2023-11-22T07:51:08;9.82;;;4.35;;
73337;SDS011;61575;49.908;35.556;2023-11-22T07:54:10;9.27;;;4.15;;
73337;SDS011;61575;49.908;35.556;2023-11-22T07:57:24;7.25;;;3.60;;
73337;SDS011;61575;49.908;35.556;2023-11-22T08:00:26;6.03;;;2.90;;
73337;SDS011;61575;49.908;35.556;2023-11-22T08:03:31;5.45;;;3.00;;
73337;SDS011;61575;49.908;35.556;2023-11-22T08:06:34;5.78;;;2.88;;
73337;SDS011;61575;49.908;35.556;2023-11-22T08:09:36;7.13;;;3.10;;
73337;SDS011;61575;49.908;35.556;2023-11-22T08:12:38;5.93;;;2.90;;
73337;SDS011;61575;49.908;35.556;2023-11-22T08:15:40;6.00;;;3.27;;
73337;SDS011;61575;49.908;35.556;2023-11-22T08:18:42;5.22;;;3.00;;
73337;SDS011;61575;49.908;35.556;2023-11-22T08:21:45;10.23;;;4.78;;
73337;SDS011;61575;49.908;35.556;2023-11-22T08:24:47;10.00;;;4.27;;
73337;SDS011;61575;49.908;35.556;2023-11-22T08:27:49;8.93;;;4.15;;
73337;SDS011;61575;49.908;35.556;2023-11-22T08:30:52;7.03;;;3.20;;
73337;SDS011;61575;49.908;35.556;2023-11-22T08:33:54;7.18;;;3.85;;
73337;SDS011;61575;49.908;35.556;2023-11-22T08:36:56;7.67;;;3.70;;
73337;SDS011;61575;49.908;35.556;2023-11-22T08:39:59;7.78;;;3.17;;
73337;SDS011;61575;49.908;35.556;2023-11-22T08:43:01;7.43;;;3.30;;
73337;SDS011;61575;49.908;35.556;2023-11-22T08:46:03;7.03;;;3.93;;
73337;SDS011;61575;49.908;35.556;2023-11-22T08:49:15;7.93;;;3.08;;
73337;SDS011;61575;49.908;35.556;2023-11-22T08:52:17;8.40;;;3.22;;
73337;SDS011;61575;49.908;35.556;2023-11-22T08:55:19;7.40;;;3.53;;
73337;SDS011;61575;49.908;35.556;2023-11-22T08:58:25;7.50;;;3.03;;
73337;SDS011;61575;49.908;35.556;2023-11-22T09:01:28;6.55;;;3.40;;
73337;SDS011;61575;49.908;35.556;2023-11-22T09:04:31;7.18;;;3.67;;
73337;SDS011;61575;49.908;35.556;2023-11-22T09:07:34;7.00;;;3.67;;
73337;SDS011;61575;49.908;35.556;2023-11-22T09:10:37;8.13;;;3.65;;
73337;SDS011;61575;49.908;35.556;2023-11-22T09:13:39;10.93;;;4.90;;
73337;SDS011;61575;49.908;35.556;2023-11-22T09:16:41;6.63;;;2.80;;
73337;SDS011;61575;49.908;35.556;2023-11-22T09:19:43;9.73;;;3.90;;
73337;SDS011;61575;49.908;35.556;2023-11-22T09:22:46;8.95;;;3.70;;
73337;SDS011;61575;49.908;35.556;2023-11-22T09:25:58;7.10;;;3.38;;
73337;SDS011;61575;49.908;35.556;2023-11-22T09:29:02;6.97;;;3.25;;
73337;SDS011;61575;49.908;35.556;2023-11-22T09:32:05;7.47;;;3.42;;
73337;SDS011;61575;49.908;35.556;2023-11-22T09:35:07;7.13;;;3.67;;
73337;SDS011;61575;49.908;35.556;2023-11-22T09:38:11;7.28;;;3.60;;
73337;SDS011;61575;49.908;35.556;2023-11-22T09:41:14;7.78;;;3.60;;
73337;SDS011;61575;49.908;35.556;2023-11-22T09:44:18;7.28;;;3.78;;
73337;SDS011;61575;49.908;35.556;2023-11-22T09:47:20;9.05;;;3.97;;
73337;SDS011;61575;49.908;35.556;2023-11-22T09:50:34;7.35;;;3.63;;
73337;SDS011;61575;49.908;35.556;2023-11-22T09:56:45;5.93;;;3.07;;
73337;SDS011;61575;49.908;35.556;2023-11-22T09:59:52;6.50;;;3.30;;
73337;SDS011;61575;49.908;35.556;2023-11-22T10:02:57;9.60;;;4.10;;
73337;SDS011;61575;49.908;35.556;2023-11-22T10:06:00;8.00;;;3.65;;
73337;SDS011;61575;49.908;35.556;2023-11-22T10:09:02;14.13;;;7.65;;
73337;SDS011;61575;49.908;35.556;2023-11-22T10:12:11;9.55;;;4.30;;
73337;SDS011;61575;49.908;35.556;2023-11-22T10:15:15;7.35;;;4.07;;
73337;SDS011;61575;49.908;35.556;2023-11-22T10:18:20;6.28;;;3.50;;
73337;SDS011;61575;49.908;35.556;2023-11-22T10:21:28;9.20;;;4.03;;
73337;SDS011;61575;49.908;35.556;2023-11-22T10:24:32;8.00;;;3.45;;
73337;SDS011;61575;49.908;35.556;2023-11-22T10:27:37;8.23;;;3.78;;
73337;SDS011;61575;49.908;35.556;2023-11-22T10:30:39;8.48;;;4.07;;
73337;SDS011;61575;49.908;35.556;2023-11-22T10:33:42;8.40;;;3.90;;
73337;SDS011;61575;49.908;35.556;2023-11-22T10:36:45;10.70;;;4.22;;
73337;SDS011;61575;49.908;35.556;2023-11-22T10:39:52;7.13;;;3.72;;
73337;SDS011;61575;49.908;35.556;2023-11-22T10:42:54;7.97;;;4.15;;
73337;SDS011;61575;49.908;35.556;2023-11-22T10:45:58;6.20;;;3.53;;
73337;SDS011;61575;49.908;35.556;2023-11-22T10:49:01;9.13;;;4.63;;
73337;SDS011;61575;49.908;35.556;2023-11-22T10:52:03;9.47;;;4.37;;
73337;SDS011;61575;49.908;35.556;2023-11-22T10:55:10;6.30;;;2.90;;
73337;SDS011;61575;49.908;35.556;2023-11-22T10:58:14;6.72;;;3.40;;
73337;SDS011;61575;49.908;35.556;2023-11-22T11:01:17;8.60;;;3.78;;
73337;SDS011;61575;49.908;35.556;2023-11-22T11:04:24;9.82;;;4.15;;
73337;SDS011;61575;49.908;35.556;2023-11-22T11:07:35;7.18;;;3.33;;
73337;SDS011;61575;49.908;35.556;2023-11-22T11:10:43;7.32;;;3.50;;
73337;SDS011;61575;49.908;35.556;2023-11-22T11:13:47;9.57;;;4.70;;
73337;SDS011;61575;49.908;35.556;2023-11-22T11:16:50;9.10;;;4.10;;
73337;SDS011;61575;49.908;35.556;2023-11-22T11:19:57;8.95;;;4.00;;
73337;SDS011;61575;49.908;35.556;2023-11-22T11:23:02;9.23;;;4.05;;
73337;SDS011;61575;49.908;35.556;2023-11-22T11:26:17;8.55;;;4.07;;
73337;SDS011;61575;49.908;35.556;2023-11-22T11:29:29;7.55;;;3.80;;
73337;SDS011;61575;49.908;35.556;2023-11-22T11:32:32;7.72;;;3.80;;
73337;SDS011;61575;49.908;35.556;2023-11-22T11:35:38;9.98;;;4.30;;
73337;SDS011;61575;49.908;35.556;2023-11-22T11:38:43;9.35;;;4.55;;
73337;SDS011;61575;49.908;35.556;2023-11-22T11:41:45;9.13;;;4.60;;
73337;SDS011;61575;49.908;35.556;2023-11-22T11:48:08;10.02;;;4.95;;
73337;SDS011;61575;49.908;35.556;2023-11-22T11:51:17;10.27;;;5.43;;
73337;SDS011;61575;49.908;35.556;2023-11-22T11:54:20;7.82;;;4.57;;
73337;SDS011;61575;49.908;35.556;2023-11-22T11:57:24;9.35;;;4.80;;
73337;SDS011;61575;49.908;35.556;2023-11-22T12:00:26;7.70;;;4.30;;
73337;SDS011;61575;49.908;35.556;2023-11-22T12:03:30;8.10;;;4.50;;
73337;SDS011;61575;49.908;35.556;2023-11-22T12:06:32;9.70;;;4.50;;
73337;SDS011;61575;49.908;35.556;2023-11-22T12:09:38;11.25;;;5.35;;
73337;SDS011;61575;49.908;35.556;2023-11-22T12:12:42;9.60;;;4.60;;
73337;SDS011;61575;49.908;35.556;2023-11-22T12:15:45;11.32;;;5.40;;
73337;SDS011;61575;49.908;35.556;2023-11-22T12:18:48;16.70;;;8.45;;
73337;SDS011;61575;49.908;35.556;2023-11-22T12:21:51;12.05;;;6.35;;
73337;SDS011;61575;49.908;35.556;2023-11-22T12:24:54;10.30;;;5.43;;
73337;SDS011;61575;49.908;35.556;2023-11-22T12:27:56;9.77;;;5.43;;
73337;SDS011;61575;49.908;35.556;2023-11-22T12:31:08;15.02;;;6.20;;
73337;SDS011;61575;49.908;35.556;2023-11-22T12:34:12;11.93;;;6.20;;
73337;SDS011;61575;49.908;35.556;2023-11-22T12:37:16;11.73;;;5.55;;
73337;SDS011;61575;49.908;35.556;2023-11-22T12:40:19;10.43;;;5.10;;
73337;SDS011;61575;49.908;35.556;2023-11-22T12:43:22;12.45;;;5.15;;
73337;SDS011;61575;49.908;35.556;2023-11-22T12:46:24;13.20;;;6.13;;
73337;SDS011;61575;49.908;35.556;2023-11-22T12:49:26;8.60;;;4.53;;
73337;SDS011;61575;49.908;35.556;2023-11-22T12:52:29;8.80;;;4.45;;
73337;SDS011;61575;49.908;35.556;2023-11-22T12:55:34;12.73;;;5.95;;
73337;SDS011;61575;49.908;35.556;2023-11-22T12:58:38;19.40;;;7.90;;
73337;SDS011;61575;49.908;35.556;2023-11-22T13:01:40;14.47;;;6.70;;
73337;SDS011;61575;49.908;35.556;2023-11-22T13:04:42;11.32;;;4.82;;
73337;SDS011;61575;49.908;35.556;2023-11-22T13:07:47;15.10;;;7.45;;
73337;SDS011;61575;49.908;35.556;2023-11-22T13:10:51;11.93;;;5.32;;
73337;SDS011;61575;49.908;35.556;2023-11-22T13:13:59;12.25;;;5.38;;
73337;SDS011;61575;49.908;35.556;2023-11-22T13:17:01;13.30;;;6.50;;
73337;SDS011;61575;49.908;35.556;2023-11-22T13:20:05;11.07;;;5.30;;
73337;SDS011;61575;49.908;35.556;2023-11-22T13:23:15;10.98;;;5.57;;
73337;SDS011;61575;49.908;35.556;2023-11-22T13:29:20;12.07;;;5.70;;
73337;SDS011;61575;49.908;35.556;2023-11-22T13:32:22;11.90;;;6.30;;
73337;SDS011;61575;49.908;35.556;2023-11-22T13:35:26;11.00;;;5.65;;
73337;SDS011;61575;49.908;35.556;2023-11-22T13:38:33;10.95;;;5.15;;
73337;SDS011;61575;49.908;35.556;2023-11-22T13:41:35;14.93;;;6.47;;
73337;SDS011;61575;49.908;35.556;2023-11-22T13:44:37;12.03;;;6.40;;
73337;SDS011;61575;49.908;35.556;2023-11-22T13:47:39;11.90;;;6.33;;
73337;SDS011;61575;49.908;35.556;2023-11-22T13:50:41;15.20;;;7.67;;
73337;SDS011;61575;49.908;35.556;2023-11-22T13:56:51;15.30;;;6.55;;
73337;SDS011;61575;49.908;35.556;2023-11-22T13:59:53;16.80;;;7.53;;
73337;SDS011;61575;49.908;35.556;2023-11-22T14:02:56;17.40;;;7.47;;
73337;SDS011;61575;49.908;35.556;2023-11-22T14:05:59;18.08;;;8.40;;
73337;SDS011;61575;49.908;35.556;2023-11-22T14:12:05;15.23;;;6.67;;
73337;SDS011;61575;49.908;35.556;2023-11-22T14:15:07;17.38;;;8.50;;
73337;SDS011;61575;49.908;35.556;2023-11-22T14:18:10;13.82;;;7.30;;
73337;SDS011;61575;49.908;35.556;2023-11-22T14:21:12;15.57;;;7.63;;
73337;SDS011;61575;49.908;35.556;2023-11-22T14:24:14;14.47;;;7.73;;
73337;SDS011;61575;49.908;35.556;2023-11-22T14:27:19;17.97;;;7.87;;
73337;SDS011;61575;49.908;35.556;2023-11-22T14:30:21;14.93;;;6.70;;
73337;SDS011;61575;49.908;35.556;2023-11-22T14:33:24;18.02;;;7.82;;
73337;SDS011;61575;49.908;35.556;2023-11-22T14:36:27;16.02;;;7.55;;
73337;SDS011;61575;49.908;35.556;2023-11-22T14:39:31;15.52;;;7.57;;
73337;SDS011;61575;49.908;35.556;2023-11-22T14:42:35;16.88;;;8.07;;
73337;SDS011;61575;49.908;35.556;2023-11-22T14:45:38;14.80;;;7.35;;
73337;SDS011;61575;49.908;35.556;2023-11-22T14:48:40;15.43;;;7.82;;
73337;SDS011;61575;49.908;35.556;2023-11-22T14:51:42;18.07;;;8.03;;
73337;SDS011;61575;49.908;35.556;2023-11-22T14:54:44;15.40;;;7.82;;
73337;SDS011;61575;49.908;35.556;2023-11-22T14:57:47;16.67;;;8.02;;
73337;SDS011;61575;49.908;35.556;2023-11-22T15:00:50;17.42;;;8.25;;
73337;SDS011;61575;49.908;35.556;2023-11-22T15:03:52;17.20;;;7.67;;
73337;SDS011;61575;49.908;35.556;2023-11-22T15:06:58;15.77;;;7.20;;
73337;SDS011;61575;49.908;35.556;2023-11-22T15:10:00;14.60;;;7.80;;
73337;SDS011;61575;49.908;35.556;2023-11-22T15:13:02;16.93;;;7.77;;
73337;SDS011;61575;49.908;35.556;2023-11-22T15:16:04;15.82;;;7.63;;
73337;SDS011;61575;49.908;35.556;2023-11-22T15:19:07;14.32;;;6.57;;
73337;SDS011;61575;49.908;35.556;2023-11-22T15:22:09;12.83;;;6.60;;
73337;SDS011;61575;49.908;35.556;2023-11-22T15:25:11;14.80;;;7.20;;
73337;SDS011;61575;49.908;35.556;2023-11-22T15:28:13;18.53;;;8.00;;
73337;SDS011;61575;49.908;35.556;2023-11-22T15:31:24;16.98;;;8.13;;
73337;SDS011;61575;49.908;35.556;2023-11-22T15:34:26;17.13;;;7.35;;
73337;SDS011;61575;49.908;35.556;2023-11-22T15:37:29;18.67;;;7.55;;
73337;SDS011;61575;49.908;35.556;2023-11-22T15:40:31;14.67;;;7.27;;
73337;SDS011;61575;49.908;35.556;2023-11-22T15:43:33;16.52;;;8.27;;
73337;SDS011;61575;49.908;35.556;2023-11-22T15:46:36;16.38;;;7.88;;
73337;SDS011;61575;49.908;35.556;2023-11-22T15:49:38;19.58;;;8.27;;
73337;SDS011;61575;49.908;35.556;2023-11-22T15:52:40;21.20;;;8.53;;
73337;SDS011;61575;49.908;35.556;2023-11-22T15:55:42;18.00;;;8.30;;
73337;SDS011;61575;49.908;35.556;2023-11-22T15:58:45;20.25;;;9.00;;
73337;SDS011;61575;49.908;35.556;2023-11-22T16:01:47;22.47;;;10.30;;
73337;SDS011;61575;49.908;35.556;2023-11-22T16:04:50;22.00;;;11.00;;
73337;SDS011;61575;49.908;35.556;2023-11-22T16:07:52;20.42;;;10.18;;
73337;SDS011;61575;49.908;35.556;2023-11-22T16:10:55;21.27;;;9.23;;
73337;SDS011;61575;49.908;35.556;2023-11-22T16:13:57;27.93;;;10.33;;
73337;SDS011;61575;49.908;35.556;2023-11-22T16:16:59;27.73;;;10.23;;
73337;SDS011;61575;49.908;35.556;2023-11-22T16:20:02;24.75;;;10.25;;
73337;SDS011;61575;49.908;35.556;2023-11-22T16:23:13;25.42;;;9.68;;
73337;SDS011;61575;49.908;35.556;2023-11-22T16:26:17;22.95;;;9.63;;
73337;SDS011;61575;49.908;35.556;2023-11-22T16:29:21;25.50;;;10.43;;
73337;SDS011;61575;49.908;35.556;2023-11-22T16:32:23;26.30;;;10.15;;
73337;SDS011;61575;49.908;35.556;2023-11-22T16:35:25;24.45;;;10.43;;
73337;SDS011;61575;49.908;35.556;2023-11-22T16:38:27;19.80;;;9.30;;
73337;SDS011;61575;49.908;35.556;2023-11-22T16:41:29;29.13;;;12.67;;
73337;SDS011;61575;49.908;35.556;2023-11-22T16:44:31;31.40;;;13.13;;
73337;SDS011;61575;49.908;35.556;2023-11-22T16:47:34;20.63;;;9.43;;
73337;SDS011;61575;49.908;35.556;2023-11-22T16:50:37;17.45;;;8.70;;
73337;SDS011;61575;49.908;35.556;2023-11-22T16:53:39;14.13;;;7.10;;
73337;SDS011;61575;49.908;35.556;2023-11-22T16:56:42;15.73;;;7.28;;
73337;SDS011;61575;49.908;35.556;2023-11-22T16:59:44;14.57;;;7.30;;
73337;SDS011;61575;49.908;35.556;2023-11-22T17:02:46;17.05;;;8.88;;
73337;SDS011;61575;49.908;35.556;2023-11-22T17:05:53;18.45;;;7.80;;
73337;SDS011;61575;49.908;35.556;2023-11-22T17:08:55;16.10;;;7.75;;
73337;SDS011;61575;49.908;35.556;2023-11-22T17:11:57;21.05;;;9.45;;
73337;SDS011;61575;49.908;35.556;2023-11-22T17:15:01;18.00;;;8.30;;
73337;SDS011;61575;49.908;35.556;2023-11-22T17:18:06;17.73;;;8.43;;
73337;SDS011;61575;49.908;35.556;2023-11-22T17:21:09;17.63;;;8.40;;
73337;SDS011;61575;49.908;35.556;2023-11-22T17:24:17;19.40;;;8.75;;
73337;SDS011;61575;49.908;35.556;2023-11-22T17:27:20;18.23;;;7.90;;
73337;SDS011;61575;49.908;35.556;2023-11-22T17:30:22;20.05;;;8.77;;
73337;SDS011;61575;49.908;35.556;2023-11-22T17:33:27;20.40;;;8.70;;
73337;SDS011;61575;49.908;35.556;2023-11-22T17:36:30;23.00;;;8.27;;
73337;SDS011;61575;49.908;35.556;2023-11-22T17:39:33;20.20;;;8.82;;
73337;SDS011;61575;49.908;35.556;2023-11-22T17:42:35;17.48;;;7.90;;
73337;SDS011;61575;49.908;35.556;2023-11-22T17:45:37;21.83;;;9.23;;
73337;SDS011;61575;49.908;35.556;2023-11-22T17:48:41;18.73;;;8.10;;
73337;SDS011;61575;49.908;35.556;2023-11-22T17:54:48;16.02;;;7.43;;
73337;SDS011;61575;49.908;35.556;2023-11-22T17:57:50;20.85;;;9.10;;
73337;SDS011;61575;49.908;35.556;2023-11-22T18:00:52;17.87;;;8.60;;
73337;SDS011;61575;49.908;35.556;2023-11-22T18:03:54;23.33;;;9.88;;
73337;SDS011;61575;49.908;35.556;2023-11-22T18:06:57;18.92;;;9.60;;
73337;SDS011;61575;49.908;35.556;2023-11-22T18:10:13;20.17;;;9.35;;
73337;SDS011;61575;49.908;35.556;2023-11-22T18:13:21;22.27;;;9.63;;
73337;SDS011;61575;49.908;35.556;2023-11-22T18:16:23;20.00;;;8.93;;
73337;SDS011;61575;49.908;35.556;2023-11-22T18:19:25;18.42;;;8.77;;
73337;SDS011;61575;49.908;35.556;2023-11-22T18:22:27;11.45;;;6.50;;